sensor_id;sensor_type;location;lat;lon;timestamp;P1;durP1;ratioP1;P2;durP2;ratioP2
57800;SDS011;43627;42.728;23.256;2023-02-22T00:01:32;11.18;;;3.88;;
57800;SDS011;43627;42.728;23.256;2023-02-22T00:04:16;7.47;;;3.60;;
57800;SDS011;43627;42.728;23.256;2023-02-22T00:06:46;7.80;;;3.63;;
57800;SDS011;43627;42.728;23.256;2023-02-22T00:09:14;8.05;;;3.78;;
57800;SDS011;43627;42.728;23.256;2023-02-22T00:11:46;10.17;;;3.33;;
57800;SDS011;43627;42.728;23.256;2023-02-22T00:14:14;9.13;;;4.10;;
57800;SDS011;43627;42.728;23.256;2023-02-22T00:16:45;5.35;;;2.88;;
57800;SDS011;43627;42.728;23.256;2023-02-22T00:19:12;8.07;;;3.35;;
57800;SDS011;43627;42.728;23.256;2023-02-22T00:21:39;6.85;;;2.67;;
57800;SDS011;43627;42.728;23.256;2023-02-22T00:24:05;7.85;;;3.20;;
57800;SDS011;43627;42.728;23.256;2023-02-22T00:26:51;8.30;;;2.97;;
57800;SDS011;43627;42.728;23.256;2023-02-22T00:29:23;9.10;;;3.63;;
57800;SDS011;43627;42.728;23.256;2023-02-22T00:31:50;10.73;;;3.65;;
57800;SDS011;43627;42.728;23.256;2023-02-22T00:34:17;8.88;;;3.50;;
57800;SDS011;43627;42.728;23.256;2023-02-22T00:36:47;9.60;;;3.28;;
57800;SDS011;43627;42.728;23.256;2023-02-22T00:39:15;12.43;;;3.25;;
57800;SDS011;43627;42.728;23.256;2023-02-22T00:41:41;7.25;;;3.28;;
57800;SDS011;43627;42.728;23.256;2023-02-22T00:44:08;7.55;;;3.03;;
57800;SDS011;43627;42.728;23.256;2023-02-22T00:46:35;9.18;;;3.63;;
57800;SDS011;43627;42.728;23.256;2023-02-22T00:49:02;9.02;;;3.80;;
57800;SDS011;43627;42.728;23.256;2023-02-22T00:51:30;10.30;;;3.63;;
57800;SDS011;43627;42.728;23.256;2023-02-22T00:53:57;7.80;;;2.95;;
57800;SDS011;43627;42.728;23.256;2023-02-22T00:56:23;10.02;;;2.78;;
57800;SDS011;43627;42.728;23.256;2023-02-22T00:58:50;13.30;;;3.65;;
57800;SDS011;43627;42.728;23.256;2023-02-22T01:01:17;8.98;;;3.75;;
57800;SDS011;43627;42.728;23.256;2023-02-22T01:03:44;12.02;;;4.07;;
57800;SDS011;43627;42.728;23.256;2023-02-22T01:06:11;10.10;;;4.20;;
57800;SDS011;43627;42.728;23.256;2023-02-22T01:08:38;14.00;;;6.07;;
57800;SDS011;43627;42.728;23.256;2023-02-22T01:13:36;12.05;;;4.90;;
57800;SDS011;43627;42.728;23.256;2023-02-22T01:16:04;8.38;;;3.78;;
57800;SDS011;43627;42.728;23.256;2023-02-22T01:18:36;9.10;;;4.65;;
57800;SDS011;43627;42.728;23.256;2023-02-22T01:21:03;14.18;;;4.68;;
57800;SDS011;43627;42.728;23.256;2023-02-22T01:23:30;15.52;;;4.95;;
57800;SDS011;43627;42.728;23.256;2023-02-22T01:25:57;16.33;;;4.22;;
57800;SDS011;43627;42.728;23.256;2023-02-22T01:28:24;15.45;;;4.32;;
57800;SDS011;43627;42.728;23.256;2023-02-22T01:30:50;17.98;;;5.82;;
57800;SDS011;43627;42.728;23.256;2023-02-22T01:33:17;18.10;;;6.28;;
57800;SDS011;43627;42.728;23.256;2023-02-22T01:35:44;23.95;;;7.43;;
57800;SDS011;43627;42.728;23.256;2023-02-22T01:38:12;19.48;;;7.95;;
57800;SDS011;43627;42.728;23.256;2023-02-22T01:40:40;17.42;;;7.63;;
57800;SDS011;43627;42.728;23.256;2023-02-22T01:43:27;18.02;;;7.40;;
57800;SDS011;43627;42.728;23.256;2023-02-22T01:46:00;24.35;;;8.75;;
57800;SDS011;43627;42.728;23.256;2023-02-22T01:53:24;17.30;;;5.80;;
57800;SDS011;43627;42.728;23.256;2023-02-22T01:55:57;14.52;;;5.88;;
57800;SDS011;43627;42.728;23.256;2023-02-22T01:58:25;13.43;;;5.30;;
57800;SDS011;43627;42.728;23.256;2023-02-22T02:00:55;12.88;;;5.07;;
57800;SDS011;43627;42.728;23.256;2023-02-22T02:03:24;13.23;;;4.50;;
57800;SDS011;43627;42.728;23.256;2023-02-22T02:05:55;9.70;;;3.78;;
57800;SDS011;43627;42.728;23.256;2023-02-22T02:11:15;10.85;;;3.30;;
57800;SDS011;43627;42.728;23.256;2023-02-22T02:13:45;8.73;;;4.22;;
57800;SDS011;43627;42.728;23.256;2023-02-22T02:16:14;9.98;;;4.00;;
57800;SDS011;43627;42.728;23.256;2023-02-22T02:18:41;10.85;;;4.18;;
57800;SDS011;43627;42.728;23.256;2023-02-22T02:26:58;12.18;;;5.32;;
57800;SDS011;43627;42.728;23.256;2023-02-22T02:30:26;13.98;;;4.45;;
57800;SDS011;43627;42.728;23.256;2023-02-22T02:43:44;13.10;;;5.53;;
57800;SDS011;43627;42.728;23.256;2023-02-22T02:46:23;14.82;;;5.93;;
57800;SDS011;43627;42.728;23.256;2023-02-22T02:48:58;24.65;;;8.55;;
57800;SDS011;43627;42.728;23.256;2023-02-22T02:51:31;32.75;;;10.27;;
57800;SDS011;43627;42.728;23.256;2023-02-22T02:54:04;28.80;;;8.02;;
57800;SDS011;43627;42.728;23.256;2023-02-22T02:56:32;28.48;;;9.88;;
57800;SDS011;43627;42.728;23.256;2023-02-22T02:59:00;18.33;;;7.40;;
57800;SDS011;43627;42.728;23.256;2023-02-22T03:05:10;20.30;;;7.55;;
57800;SDS011;43627;42.728;23.256;2023-02-22T03:13:13;26.33;;;10.57;;
57800;SDS011;43627;42.728;23.256;2023-02-22T03:16:11;42.33;;;12.27;;
57800;SDS011;43627;42.728;23.256;2023-02-22T03:18:55;34.15;;;10.55;;
57800;SDS011;43627;42.728;23.256;2023-02-22T03:21:40;28.00;;;12.70;;
57800;SDS011;43627;42.728;23.256;2023-02-22T03:24:21;33.58;;;12.20;;
57800;SDS011;43627;42.728;23.256;2023-02-22T03:26:56;37.85;;;13.68;;
57800;SDS011;43627;42.728;23.256;2023-02-22T03:29:29;32.25;;;12.70;;
57800;SDS011;43627;42.728;23.256;2023-02-22T03:32:02;28.58;;;11.23;;
57800;SDS011;43627;42.728;23.256;2023-02-22T03:34:33;32.30;;;12.73;;
57800;SDS011;43627;42.728;23.256;2023-02-22T03:37:08;40.95;;;14.02;;
57800;SDS011;43627;42.728;23.256;2023-02-22T03:39:48;28.25;;;12.10;;
57800;SDS011;43627;42.728;23.256;2023-02-22T03:42:29;34.45;;;11.48;;
57800;SDS011;43627;42.728;23.256;2023-02-22T03:45:00;48.08;;;15.93;;
57800;SDS011;43627;42.728;23.256;2023-02-22T03:47:32;23.13;;;9.38;;
57800;SDS011;43627;42.728;23.256;2023-02-22T03:50:10;31.55;;;10.60;;
57800;SDS011;43627;42.728;23.256;2023-02-22T03:52:41;24.08;;;9.80;;
57800;SDS011;43627;42.728;23.256;2023-02-22T03:55:09;32.30;;;10.48;;
57800;SDS011;43627;42.728;23.256;2023-02-22T03:57:39;19.90;;;8.65;;
57800;SDS011;43627;42.728;23.256;2023-02-22T04:00:10;23.00;;;7.13;;
57800;SDS011;43627;42.728;23.256;2023-02-22T04:02:40;26.08;;;8.82;;
57800;SDS011;43627;42.728;23.256;2023-02-22T04:05:07;36.72;;;15.45;;
57800;SDS011;43627;42.728;23.256;2023-02-22T04:07:34;27.17;;;9.60;;
57800;SDS011;43627;42.728;23.256;2023-02-22T04:10:01;23.85;;;8.38;;
57800;SDS011;43627;42.728;23.256;2023-02-22T04:12:28;23.15;;;8.80;;
57800;SDS011;43627;42.728;23.256;2023-02-22T04:14:55;21.17;;;8.68;;
57800;SDS011;43627;42.728;23.256;2023-02-22T04:17:22;26.08;;;10.07;;
57800;SDS011;43627;42.728;23.256;2023-02-22T04:19:48;21.58;;;9.75;;
57800;SDS011;43627;42.728;23.256;2023-02-22T04:22:15;25.17;;;10.02;;
57800;SDS011;43627;42.728;23.256;2023-02-22T04:24:42;25.42;;;10.55;;
57800;SDS011;43627;42.728;23.256;2023-02-22T04:27:09;33.60;;;12.30;;
57800;SDS011;43627;42.728;23.256;2023-02-22T04:29:36;25.33;;;11.32;;
57800;SDS011;43627;42.728;23.256;2023-02-22T04:32:02;25.60;;;9.85;;
57800;SDS011;43627;42.728;23.256;2023-02-22T04:34:29;20.52;;;9.85;;
57800;SDS011;43627;42.728;23.256;2023-02-22T04:36:56;26.75;;;9.68;;
57800;SDS011;43627;42.728;23.256;2023-02-22T04:39:22;24.33;;;10.50;;
57800;SDS011;43627;42.728;23.256;2023-02-22T04:41:49;17.83;;;7.53;;
57800;SDS011;43627;42.728;23.256;2023-02-22T04:44:16;25.40;;;9.52;;
57800;SDS011;43627;42.728;23.256;2023-02-22T04:46:43;24.85;;;9.85;;
57800;SDS011;43627;42.728;23.256;2023-02-22T04:49:12;26.25;;;9.57;;
57800;SDS011;43627;42.728;23.256;2023-02-22T04:51:38;23.48;;;11.32;;
57800;SDS011;43627;42.728;23.256;2023-02-22T04:54:06;53.90;;;19.25;;
57800;SDS011;43627;42.728;23.256;2023-02-22T04:56:33;51.97;;;17.52;;
57800;SDS011;43627;42.728;23.256;2023-02-22T04:59:00;42.85;;;15.07;;
57800;SDS011;43627;42.728;23.256;2023-02-22T05:01:31;50.20;;;17.35;;
57800;SDS011;43627;42.728;23.256;2023-02-22T05:04:00;64.47;;;22.98;;
57800;SDS011;43627;42.728;23.256;2023-02-22T05:06:28;32.67;;;13.25;;
57800;SDS011;43627;42.728;23.256;2023-02-22T05:08:54;37.40;;;15.52;;
57800;SDS011;43627;42.728;23.256;2023-02-22T05:11:21;15.35;;;6.35;;
57800;SDS011;43627;42.728;23.256;2023-02-22T05:13:48;26.38;;;10.25;;
57800;SDS011;43627;42.728;23.256;2023-02-22T05:16:15;27.95;;;10.77;;
57800;SDS011;43627;42.728;23.256;2023-02-22T05:18:42;17.23;;;8.18;;
57800;SDS011;43627;42.728;23.256;2023-02-22T05:21:09;16.48;;;7.47;;
57800;SDS011;43627;42.728;23.256;2023-02-22T05:23:35;20.27;;;6.95;;
57800;SDS011;43627;42.728;23.256;2023-02-22T05:26:02;20.02;;;7.65;;
57800;SDS011;43627;42.728;23.256;2023-02-22T05:28:29;14.88;;;8.23;;
57800;SDS011;43627;42.728;23.256;2023-02-22T05:30:55;18.52;;;8.43;;
57800;SDS011;43627;42.728;23.256;2023-02-22T05:33:22;15.65;;;7.18;;
57800;SDS011;43627;42.728;23.256;2023-02-22T05:35:49;18.55;;;6.78;;
57800;SDS011;43627;42.728;23.256;2023-02-22T05:38:15;19.00;;;7.20;;
57800;SDS011;43627;42.728;23.256;2023-02-22T05:40:42;14.07;;;7.22;;
57800;SDS011;43627;42.728;23.256;2023-02-22T05:43:09;11.48;;;5.90;;
57800;SDS011;43627;42.728;23.256;2023-02-22T05:45:36;13.65;;;6.15;;
57800;SDS011;43627;42.728;23.256;2023-02-22T05:48:02;16.73;;;6.18;;
57800;SDS011;43627;42.728;23.256;2023-02-22T05:50:29;18.55;;;7.32;;
57800;SDS011;43627;42.728;23.256;2023-02-22T05:52:58;16.88;;;6.85;;
57800;SDS011;43627;42.728;23.256;2023-02-22T05:55:25;18.35;;;7.55;;
57800;SDS011;43627;42.728;23.256;2023-02-22T05:57:52;33.30;;;11.23;;
57800;SDS011;43627;42.728;23.256;2023-02-22T06:00:20;38.50;;;14.45;;
57800;SDS011;43627;42.728;23.256;2023-02-22T06:03:05;34.72;;;14.95;;
57800;SDS011;43627;42.728;23.256;2023-02-22T06:05:33;33.35;;;13.90;;
57800;SDS011;43627;42.728;23.256;2023-02-22T06:08:01;32.88;;;14.75;;
57800;SDS011;43627;42.728;23.256;2023-02-22T06:10:28;37.58;;;14.95;;
57800;SDS011;43627;42.728;23.256;2023-02-22T06:12:55;29.50;;;14.30;;
57800;SDS011;43627;42.728;23.256;2023-02-22T06:15:23;29.80;;;12.75;;
57800;SDS011;43627;42.728;23.256;2023-02-22T06:17:50;20.98;;;10.63;;
57800;SDS011;43627;42.728;23.256;2023-02-22T06:20:19;22.70;;;11.00;;
57800;SDS011;43627;42.728;23.256;2023-02-22T06:22:48;23.77;;;10.93;;
57800;SDS011;43627;42.728;23.256;2023-02-22T06:25:20;20.13;;;8.38;;
57800;SDS011;43627;42.728;23.256;2023-02-22T06:27:49;13.43;;;6.72;;
57800;SDS011;43627;42.728;23.256;2023-02-22T06:30:16;18.92;;;7.15;;
57800;SDS011;43627;42.728;23.256;2023-02-22T06:32:45;17.80;;;6.68;;
57800;SDS011;43627;42.728;23.256;2023-02-22T06:35:13;15.73;;;7.95;;
57800;SDS011;43627;42.728;23.256;2023-02-22T06:37:40;17.08;;;6.75;;
57800;SDS011;43627;42.728;23.256;2023-02-22T06:40:07;16.50;;;7.20;;
57800;SDS011;43627;42.728;23.256;2023-02-22T06:42:36;24.73;;;9.73;;
57800;SDS011;43627;42.728;23.256;2023-02-22T06:45:04;20.30;;;8.45;;
57800;SDS011;43627;42.728;23.256;2023-02-22T06:47:30;17.90;;;8.30;;
57800;SDS011;43627;42.728;23.256;2023-02-22T06:49:58;25.15;;;10.88;;
57800;SDS011;43627;42.728;23.256;2023-02-22T06:52:26;28.58;;;11.90;;
57800;SDS011;43627;42.728;23.256;2023-02-22T06:54:52;39.70;;;11.68;;
57800;SDS011;43627;42.728;23.256;2023-02-22T06:57:19;31.65;;;11.98;;
57800;SDS011;43627;42.728;23.256;2023-02-22T06:59:46;33.42;;;11.02;;
57800;SDS011;43627;42.728;23.256;2023-02-22T07:02:13;37.90;;;10.68;;
57800;SDS011;43627;42.728;23.256;2023-02-22T07:04:40;22.95;;;10.27;;
57800;SDS011;43627;42.728;23.256;2023-02-22T07:07:09;18.45;;;9.65;;
57800;SDS011;43627;42.728;23.256;2023-02-22T07:09:35;20.35;;;10.02;;
57800;SDS011;43627;42.728;23.256;2023-02-22T07:12:02;29.38;;;16.08;;
57800;SDS011;43627;42.728;23.256;2023-02-22T07:14:29;21.63;;;8.98;;
57800;SDS011;43627;42.728;23.256;2023-02-22T07:16:55;17.17;;;7.07;;
57800;SDS011;43627;42.728;23.256;2023-02-22T07:19:22;13.05;;;5.75;;
57800;SDS011;43627;42.728;23.256;2023-02-22T07:21:50;15.32;;;7.53;;
57800;SDS011;43627;42.728;23.256;2023-02-22T07:24:22;32.58;;;11.43;;
57800;SDS011;43627;42.728;23.256;2023-02-22T07:26:48;23.70;;;9.02;;
57800;SDS011;43627;42.728;23.256;2023-02-22T07:29:15;21.15;;;8.40;;
57800;SDS011;43627;42.728;23.256;2023-02-22T07:31:41;20.10;;;9.60;;
57800;SDS011;43627;42.728;23.256;2023-02-22T07:34:08;26.30;;;9.63;;
57800;SDS011;43627;42.728;23.256;2023-02-22T07:36:35;21.50;;;6.95;;
57800;SDS011;43627;42.728;23.256;2023-02-22T07:39:01;10.52;;;6.35;;
57800;SDS011;43627;42.728;23.256;2023-02-22T07:41:28;13.30;;;5.57;;
57800;SDS011;43627;42.728;23.256;2023-02-22T07:43:55;17.42;;;7.00;;
57800;SDS011;43627;42.728;23.256;2023-02-22T07:46:21;27.15;;;6.05;;
57800;SDS011;43627;42.728;23.256;2023-02-22T07:48:48;25.40;;;9.77;;
57800;SDS011;43627;42.728;23.256;2023-02-22T07:51:15;22.75;;;8.30;;
57800;SDS011;43627;42.728;23.256;2023-02-22T07:53:43;32.42;;;10.20;;
57800;SDS011;43627;42.728;23.256;2023-02-22T07:56:10;27.35;;;9.32;;
57800;SDS011;43627;42.728;23.256;2023-02-22T07:58:37;25.75;;;9.93;;
57800;SDS011;43627;42.728;23.256;2023-02-22T08:01:03;25.70;;;9.30;;
57800;SDS011;43627;42.728;23.256;2023-02-22T08:03:31;28.33;;;9.68;;
57800;SDS011;43627;42.728;23.256;2023-02-22T08:06:03;16.85;;;9.07;;
57800;SDS011;43627;42.728;23.256;2023-02-22T08:08:31;22.95;;;9.50;;
57800;SDS011;43627;42.728;23.256;2023-02-22T08:10:58;22.70;;;9.98;;
57800;SDS011;43627;42.728;23.256;2023-02-22T08:13:25;25.52;;;10.43;;
57800;SDS011;43627;42.728;23.256;2023-02-22T08:15:52;28.52;;;11.43;;
57800;SDS011;43627;42.728;23.256;2023-02-22T08:18:19;25.38;;;8.35;;
57800;SDS011;43627;42.728;23.256;2023-02-22T08:20:48;19.67;;;9.02;;
57800;SDS011;43627;42.728;23.256;2023-02-22T08:23:17;26.73;;;9.30;;
57800;SDS011;43627;42.728;23.256;2023-02-22T08:25:45;21.98;;;9.70;;
57800;SDS011;43627;42.728;23.256;2023-02-22T08:28:14;27.40;;;10.07;;
57800;SDS011;43627;42.728;23.256;2023-02-22T08:30:42;27.02;;;9.63;;
57800;SDS011;43627;42.728;23.256;2023-02-22T08:33:09;21.35;;;8.45;;
57800;SDS011;43627;42.728;23.256;2023-02-22T08:35:39;24.35;;;9.13;;
57800;SDS011;43627;42.728;23.256;2023-02-22T08:38:06;32.50;;;9.90;;
57800;SDS011;43627;42.728;23.256;2023-02-22T08:40:40;22.38;;;8.65;;
57800;SDS011;43627;42.728;23.256;2023-02-22T08:43:06;23.90;;;10.55;;
57800;SDS011;43627;42.728;23.256;2023-02-22T08:45:33;22.88;;;9.95;;
57800;SDS011;43627;42.728;23.256;2023-02-22T08:48:00;23.30;;;8.50;;
57800;SDS011;43627;42.728;23.256;2023-02-22T08:50:28;24.08;;;9.82;;
57800;SDS011;43627;42.728;23.256;2023-02-22T08:52:57;25.27;;;9.52;;
57800;SDS011;43627;42.728;23.256;2023-02-22T08:55:26;20.20;;;9.52;;
57800;SDS011;43627;42.728;23.256;2023-02-22T08:57:58;18.67;;;8.63;;
57800;SDS011;43627;42.728;23.256;2023-02-22T09:00:26;25.75;;;8.52;;
57800;SDS011;43627;42.728;23.256;2023-02-22T09:02:55;20.77;;;8.13;;
57800;SDS011;43627;42.728;23.256;2023-02-22T09:05:22;20.20;;;8.45;;
57800;SDS011;43627;42.728;23.256;2023-02-22T09:07:49;26.67;;;8.43;;
57800;SDS011;43627;42.728;23.256;2023-02-22T09:10:17;21.23;;;8.18;;
57800;SDS011;43627;42.728;23.256;2023-02-22T09:12:46;17.40;;;6.90;;
57800;SDS011;43627;42.728;23.256;2023-02-22T09:15:13;14.73;;;5.75;;
57800;SDS011;43627;42.728;23.256;2023-02-22T09:17:40;18.33;;;5.80;;
57800;SDS011;43627;42.728;23.256;2023-02-22T09:20:07;18.33;;;5.32;;
57800;SDS011;43627;42.728;23.256;2023-02-22T09:22:35;12.52;;;4.30;;
57800;SDS011;43627;42.728;23.256;2023-02-22T09:25:01;12.85;;;4.88;;
57800;SDS011;43627;42.728;23.256;2023-02-22T09:27:41;11.65;;;5.22;;
57800;SDS011;43627;42.728;23.256;2023-02-22T09:30:28;11.13;;;5.25;;
57800;SDS011;43627;42.728;23.256;2023-02-22T09:33:09;11.63;;;3.95;;
57800;SDS011;43627;42.728;23.256;2023-02-22T09:35:38;9.63;;;4.13;;
57800;SDS011;43627;42.728;23.256;2023-02-22T09:38:12;10.95;;;4.15;;
57800;SDS011;43627;42.728;23.256;2023-02-22T09:40:44;14.75;;;4.38;;
57800;SDS011;43627;42.728;23.256;2023-02-22T09:48:50;9.73;;;3.58;;
57800;SDS011;43627;42.728;23.256;2023-02-22T09:51:24;10.35;;;4.35;;
57800;SDS011;43627;42.728;23.256;2023-02-22T09:53:54;7.22;;;3.53;;
57800;SDS011;43627;42.728;23.256;2023-02-22T09:56:26;8.50;;;3.70;;
57800;SDS011;43627;42.728;23.256;2023-02-22T09:58:55;7.35;;;3.95;;
57800;SDS011;43627;42.728;23.256;2023-02-22T10:09:41;11.93;;;3.55;;
57800;SDS011;43627;42.728;23.256;2023-02-22T10:12:14;9.82;;;4.28;;
57800;SDS011;43627;42.728;23.256;2023-02-22T10:20:52;8.88;;;3.25;;
57800;SDS011;43627;42.728;23.256;2023-02-22T10:23:47;6.40;;;3.20;;
57800;SDS011;43627;42.728;23.256;2023-02-22T10:26:39;12.02;;;4.13;;
57800;SDS011;43627;42.728;23.256;2023-02-22T10:31:40;10.65;;;3.10;;
57800;SDS011;43627;42.728;23.256;2023-02-22T10:34:13;7.78;;;3.90;;
57800;SDS011;43627;42.728;23.256;2023-02-22T10:36:42;9.32;;;3.58;;
57800;SDS011;43627;42.728;23.256;2023-02-22T10:39:32;9.48;;;3.38;;
57800;SDS011;43627;42.728;23.256;2023-02-22T10:42:01;13.95;;;3.55;;
57800;SDS011;43627;42.728;23.256;2023-02-22T10:44:37;11.55;;;3.72;;
57800;SDS011;43627;42.728;23.256;2023-02-22T10:47:06;11.70;;;3.17;;
57800;SDS011;43627;42.728;23.256;2023-02-22T10:49:38;8.02;;;3.53;;
57800;SDS011;43627;42.728;23.256;2023-02-22T10:52:26;10.25;;;3.55;;
57800;SDS011;43627;42.728;23.256;2023-02-22T10:54:56;8.23;;;3.78;;
57800;SDS011;43627;42.728;23.256;2023-02-22T10:57:40;12.00;;;3.45;;
57800;SDS011;43627;42.728;23.256;2023-02-22T11:02:52;6.88;;;3.20;;
57800;SDS011;43627;42.728;23.256;2023-02-22T11:05:29;5.47;;;2.78;;
57800;SDS011;43627;42.728;23.256;2023-02-22T11:10:40;9.85;;;2.78;;
57800;SDS011;43627;42.728;23.256;2023-02-22T11:13:25;3.95;;;2.17;;
57800;SDS011;43627;42.728;23.256;2023-02-22T11:16:00;4.07;;;1.95;;
57800;SDS011;43627;42.728;23.256;2023-02-22T11:18:44;4.18;;;1.98;;
57800;SDS011;43627;42.728;23.256;2023-02-22T11:21:12;3.25;;;1.80;;
57800;SDS011;43627;42.728;23.256;2023-02-22T11:23:48;3.00;;;1.80;;
57800;SDS011;43627;42.728;23.256;2023-02-22T11:26:16;2.83;;;2.15;;
57800;SDS011;43627;42.728;23.256;2023-02-22T11:28:49;4.43;;;2.25;;
57800;SDS011;43627;42.728;23.256;2023-02-22T11:31:30;3.85;;;2.40;;
57800;SDS011;43627;42.728;23.256;2023-02-22T11:34:01;4.90;;;2.20;;
57800;SDS011;43627;42.728;23.256;2023-02-22T11:39:10;3.83;;;2.38;;
57800;SDS011;43627;42.728;23.256;2023-02-22T11:44:28;4.20;;;2.03;;
57800;SDS011;43627;42.728;23.256;2023-02-22T11:46:56;7.40;;;2.05;;
57800;SDS011;43627;42.728;23.256;2023-02-22T11:49:35;5.40;;;1.67;;
57800;SDS011;43627;42.728;23.256;2023-02-22T12:02:55;2.70;;;1.25;;
57800;SDS011;43627;42.728;23.256;2023-02-22T12:21:48;2.35;;;1.30;;
57800;SDS011;43627;42.728;23.256;2023-02-22T12:24:22;4.82;;;1.75;;
57800;SDS011;43627;42.728;23.256;2023-02-22T12:26:58;1.85;;;1.40;;
57800;SDS011;43627;42.728;23.256;2023-02-22T12:29:33;4.35;;;2.33;;
57800;SDS011;43627;42.728;23.256;2023-02-22T12:32:05;3.45;;;1.95;;
57800;SDS011;43627;42.728;23.256;2023-02-22T12:42:44;5.72;;;1.95;;
57800;SDS011;43627;42.728;23.256;2023-02-22T12:45:16;3.00;;;1.88;;
57800;SDS011;43627;42.728;23.256;2023-02-22T12:50:54;8.15;;;2.47;;
57800;SDS011;43627;42.728;23.256;2023-02-22T12:53:48;2.80;;;1.40;;
57800;SDS011;43627;42.728;23.256;2023-02-22T12:59:03;4.10;;;1.98;;
57800;SDS011;43627;42.728;23.256;2023-02-22T13:01:38;7.57;;;1.58;;
57800;SDS011;43627;42.728;23.256;2023-02-22T13:04:08;7.15;;;2.28;;
57800;SDS011;43627;42.728;23.256;2023-02-22T13:12:18;3.40;;;1.60;;
57800;SDS011;43627;42.728;23.256;2023-02-22T13:18:11;3.17;;;1.40;;
57800;SDS011;43627;42.728;23.256;2023-02-22T13:51:23;6.05;;;2.38;;
57800;SDS011;43627;42.728;23.256;2023-02-22T13:54:00;5.93;;;2.50;;
57800;SDS011;43627;42.728;23.256;2023-02-22T13:56:34;4.20;;;2.25;;
57800;SDS011;43627;42.728;23.256;2023-02-22T13:59:02;4.90;;;1.98;;
57800;SDS011;43627;42.728;23.256;2023-02-22T14:01:46;3.33;;;2.15;;
57800;SDS011;43627;42.728;23.256;2023-02-22T14:04:56;8.07;;;3.75;;
57800;SDS011;43627;42.728;23.256;2023-02-22T14:09:54;4.97;;;2.15;;
57800;SDS011;43627;42.728;23.256;2023-02-22T14:17:57;7.07;;;2.75;;
57800;SDS011;43627;42.728;23.256;2023-02-22T14:20:30;8.65;;;2.88;;
57800;SDS011;43627;42.728;23.256;2023-02-22T14:28:57;6.80;;;2.15;;
57800;SDS011;43627;42.728;23.256;2023-02-22T14:34:15;6.60;;;2.40;;
57800;SDS011;43627;42.728;23.256;2023-02-22T14:42:06;9.10;;;4.25;;
57800;SDS011;43627;42.728;23.256;2023-02-22T14:44:35;6.53;;;3.10;;
57800;SDS011;43627;42.728;23.256;2023-02-22T14:47:08;6.40;;;3.53;;
57800;SDS011;43627;42.728;23.256;2023-02-22T14:49:45;6.45;;;3.30;;
57800;SDS011;43627;42.728;23.256;2023-02-22T14:52:19;7.97;;;4.85;;
57800;SDS011;43627;42.728;23.256;2023-02-22T15:00:18;5.07;;;3.00;;
57800;SDS011;43627;42.728;23.256;2023-02-22T15:02:49;7.35;;;3.45;;
57800;SDS011;43627;42.728;23.256;2023-02-22T15:05:22;9.70;;;3.65;;
57800;SDS011;43627;42.728;23.256;2023-02-22T15:07:53;12.25;;;3.80;;
57800;SDS011;43627;42.728;23.256;2023-02-22T15:10:26;8.40;;;3.53;;
57800;SDS011;43627;42.728;23.256;2023-02-22T15:15:39;7.68;;;3.60;;
57800;SDS011;43627;42.728;23.256;2023-02-22T15:18:36;8.95;;;3.83;;
57800;SDS011;43627;42.728;23.256;2023-02-22T15:21:11;9.15;;;3.67;;
57800;SDS011;43627;42.728;23.256;2023-02-22T15:26:28;9.32;;;4.00;;
57800;SDS011;43627;42.728;23.256;2023-02-22T15:31:43;10.23;;;4.63;;
57800;SDS011;43627;42.728;23.256;2023-02-22T15:36:41;7.53;;;3.67;;
57800;SDS011;43627;42.728;23.256;2023-02-22T15:39:19;8.75;;;4.15;;
57800;SDS011;43627;42.728;23.256;2023-02-22T15:42:08;7.18;;;3.30;;
57800;SDS011;43627;42.728;23.256;2023-02-22T15:44:44;9.75;;;4.40;;
57800;SDS011;43627;42.728;23.256;2023-02-22T15:47:17;9.00;;;3.97;;
57800;SDS011;43627;42.728;23.256;2023-02-22T15:52:58;8.15;;;4.00;;
57800;SDS011;43627;42.728;23.256;2023-02-22T15:55:27;10.73;;;4.85;;
57800;SDS011;43627;42.728;23.256;2023-02-22T15:58:11;15.60;;;4.13;;
57800;SDS011;43627;42.728;23.256;2023-02-22T16:00:45;12.10;;;4.18;;
57800;SDS011;43627;42.728;23.256;2023-02-22T16:03:17;8.60;;;4.40;;
57800;SDS011;43627;42.728;23.256;2023-02-22T16:05:54;8.23;;;3.97;;
57800;SDS011;43627;42.728;23.256;2023-02-22T16:08:23;14.93;;;4.68;;
57800;SDS011;43627;42.728;23.256;2023-02-22T16:14:02;11.50;;;5.18;;
57800;SDS011;43627;42.728;23.256;2023-02-22T16:16:32;13.85;;;6.53;;
57800;SDS011;43627;42.728;23.256;2023-02-22T16:22:03;35.07;;;16.97;;
57800;SDS011;43627;42.728;23.256;2023-02-22T16:24:35;34.63;;;16.83;;
57800;SDS011;43627;42.728;23.256;2023-02-22T16:29:38;37.42;;;17.52;;
57800;SDS011;43627;42.728;23.256;2023-02-22T16:32:04;23.67;;;11.00;;
57800;SDS011;43627;42.728;23.256;2023-02-22T16:34:31;13.27;;;6.25;;
57800;SDS011;43627;42.728;23.256;2023-02-22T16:36:58;15.27;;;7.18;;
57800;SDS011;43627;42.728;23.256;2023-02-22T16:41:53;9.52;;;5.60;;
57800;SDS011;43627;42.728;23.256;2023-02-22T16:44:22;13.48;;;5.55;;
57800;SDS011;43627;42.728;23.256;2023-02-22T16:46:56;24.35;;;8.25;;
57800;SDS011;43627;42.728;23.256;2023-02-22T16:49:25;18.63;;;6.85;;
57800;SDS011;43627;42.728;23.256;2023-02-22T16:51:52;15.48;;;6.10;;
57800;SDS011;43627;42.728;23.256;2023-02-22T16:54:25;19.30;;;6.05;;
57800;SDS011;43627;42.728;23.256;2023-02-22T16:56:54;15.55;;;7.55;;
57800;SDS011;43627;42.728;23.256;2023-02-22T16:59:22;18.33;;;7.55;;
57800;SDS011;43627;42.728;23.256;2023-02-22T17:01:49;28.15;;;9.77;;
57800;SDS011;43627;42.728;23.256;2023-02-22T17:04:22;22.70;;;8.95;;
57800;SDS011;43627;42.728;23.256;2023-02-22T17:06:53;29.00;;;10.98;;
57800;SDS011;43627;42.728;23.256;2023-02-22T17:09:20;22.45;;;9.63;;
57800;SDS011;43627;42.728;23.256;2023-02-22T17:11:48;23.27;;;9.73;;
57800;SDS011;43627;42.728;23.256;2023-02-22T17:14:17;23.15;;;11.30;;
57800;SDS011;43627;42.728;23.256;2023-02-22T17:16:51;24.95;;;10.55;;
57800;SDS011;43627;42.728;23.256;2023-02-22T17:19:19;26.50;;;9.35;;
57800;SDS011;43627;42.728;23.256;2023-02-22T17:21:48;26.95;;;9.70;;
57800;SDS011;43627;42.728;23.256;2023-02-22T17:24:19;29.33;;;10.27;;
57800;SDS011;43627;42.728;23.256;2023-02-22T17:26:54;19.25;;;9.52;;
57800;SDS011;43627;42.728;23.256;2023-02-22T17:29:22;23.77;;;10.10;;
57800;SDS011;43627;42.728;23.256;2023-02-22T17:31:49;24.23;;;10.73;;
57800;SDS011;43627;42.728;23.256;2023-02-22T17:34:17;19.67;;;9.23;;
57800;SDS011;43627;42.728;23.256;2023-02-22T17:36:44;20.00;;;9.07;;
57800;SDS011;43627;42.728;23.256;2023-02-22T17:39:11;24.05;;;10.18;;
57800;SDS011;43627;42.728;23.256;2023-02-22T17:41:38;18.52;;;8.57;;
57800;SDS011;43627;42.728;23.256;2023-02-22T17:44:06;31.08;;;12.77;;
57800;SDS011;43627;42.728;23.256;2023-02-22T17:46:33;33.58;;;12.25;;
57800;SDS011;43627;42.728;23.256;2023-02-22T17:49:01;26.40;;;11.57;;
57800;SDS011;43627;42.728;23.256;2023-02-22T17:51:28;28.60;;;12.25;;
57800;SDS011;43627;42.728;23.256;2023-02-22T17:53:55;34.00;;;12.63;;
57800;SDS011;43627;42.728;23.256;2023-02-22T17:56:21;36.25;;;13.07;;
57800;SDS011;43627;42.728;23.256;2023-02-22T17:58:49;31.02;;;11.02;;
57800;SDS011;43627;42.728;23.256;2023-02-22T18:01:20;45.55;;;14.07;;
57800;SDS011;43627;42.728;23.256;2023-02-22T18:03:55;34.55;;;13.32;;
57800;SDS011;43627;42.728;23.256;2023-02-22T18:06:27;32.08;;;11.95;;